Time;durP1;ratioP1;P1;durP2;ratioP2;P2;SDS_P1;SDS_P2;PMS_P1;PMS_P2;Temp;Humidity;BMP_temperature;BMP_pressure;BME280_temperature;BME280_humidity;BME280_pressure;Samples;Min_cycle;Max_cycle;Signal;HPM_P1;HPM_P2
2022/01/12 00:00:34;;;;;;;15.80;5.80;;;;;;;-6.39;64.75;99945.73;25131;1311;3050924;-63
2022/01/12 00:03:03;;;;;;;17.10;6.70;;;;;;;-6.48;64.50;99942.36;25148;1312;3027482;-70
2022/01/12 00:05:32;;;;;;;10.60;4.90;;;;;;;-6.51;64.96;99949.64;25133;1310;3027398;-69
2022/01/12 00:08:01;;;;;;;17.30;6.80;;;;;;;-6.46;64.72;99952.63;25150;1310;3052888;-63
2022/01/12 00:10:33;;;;;;;16.20;6.80;;;;;;;-6.40;64.66;99951.88;25144;1311;3026438;-70
2022/01/12 00:13:02;;;;;;;13.80;6.80;;;;;;;-6.30;64.61;99955.44;25140;1309;3026517;-63
2022/01/12 00:15:32;;;;;;;12.60;7.20;;;;;;;-6.26;64.09;99960.77;25145;1312;3050524;-66
2022/01/12 00:18:01;;;;;;;12.60;5.80;;;;;;;-6.29;64.59;99957.83;25134;1312;3026689;-68
2022/01/12 00:20:30;;;;;;;20.20;6.50;;;;;;;-6.23;64.06;99956.04;25135;1312;3026794;-61
2022/01/12 00:22:59;;;;;;;15.30;6.20;;;;;;;-6.26;64.37;99953.63;25176;1309;3052803;-67
2022/01/12 00:25:44;;;;;;;14.10;6.70;;;;;;;-6.17;63.91;99959.20;25114;1311;3026409;-69
2022/01/12 00:33:48;;;;;;;11.00;5.70;;;;;;;-6.30;64.91;99950.98;25148;1310;3055534;-67
2022/01/12 00:36:19;;;;;;;19.00;8.00;;;;;;;-6.34;64.90;99955.39;25167;1311;3026563;-68
2022/01/12 00:38:48;;;;;;;17.30;7.40;;;;;;;-6.47;65.21;99952.27;25166;1310;3026691;-66
2022/01/12 00:41:17;;;;;;;14.10;6.60;;;;;;;-6.43;65.22;99952.31;25106;1309;3027101;-63
2022/01/12 00:43:50;;;;;;;13.40;6.60;;;;;;;-6.23;64.00;99953.99;25144;1311;3057755;-69
2022/01/12 00:46:19;;;;;;;15.90;6.30;;;;;;;-6.35;63.55;99952.80;25127;1311;3027759;-64
2022/01/12 00:48:48;;;;;;;14.20;6.00;;;;;;;-6.46;64.37;99952.45;25154;1310;3026782;-66
2022/01/12 00:51:16;;;;;;;13.90;6.10;;;;;;;-6.49;64.37;99955.13;25169;1310;3056161;-64
2022/01/12 00:53:45;;;;;;;15.00;7.30;;;;;;;-6.67;65.06;99962.52;25158;1312;3028727;-67
2022/01/12 00:56:14;;;;;;;19.50;7.30;;;;;;;-6.81;65.38;99960.39;25161;1312;3054965;-68
2022/01/12 00:58:43;;;;;;;13.80;6.70;;;;;;;-7.00;65.69;99961.94;25143;1311;3026729;-66
2022/01/12 01:01:12;;;;;;;12.80;5.50;;;;;;;-7.09;65.81;99954.94;25156;1310;3050344;-68
2022/01/12 01:03:41;;;;;;;20.20;7.90;;;;;;;-7.05;65.74;99952.63;25185;1311;3026236;-63
2022/01/12 01:06:11;;;;;;;12.10;5.90;;;;;;;-6.93;65.40;99957.45;25155;1311;3051455;-66
2022/01/12 01:08:43;;;;;;;17.90;6.60;;;;;;;-7.21;66.07;99964.27;25140;1310;3026447;-64
2022/01/12 01:11:12;;;;;;;17.60;6.90;;;;;;;-7.05;65.63;99959.80;25143;1311;3027557;-61
2022/01/12 01:13:56;;;;;;;12.60;5.50;;;;;;;-6.96;65.72;99963.54;25119;1311;3027173;-65
2022/01/12 01:16:44;;;;;;;17.60;7.80;;;;;;;-7.02;65.78;99964.95;25160;1310;3048133;-65
2022/01/12 01:27:39;;;;;;;13.60;6.70;;;;;;;-6.75;65.20;99964.58;25105;1312;3051154;-63
2022/01/12 01:30:09;;;;;;;17.40;7.10;;;;;;;-6.84;65.30;99976.02;25143;1312;3026587;-64
2022/01/12 01:32:41;;;;;;;19.00;7.20;;;;;;;-6.62;65.00;99977.23;25093;1315;3069342;-66
2022/01/12 01:35:11;;;;;;;14.10;7.00;;;;;;;-6.51;64.28;99979.13;25174;1310;3027218;-63
2022/01/12 01:37:41;;;;;;;18.50;6.80;;;;;;;-6.76;63.75;99979.37;25105;1311;3028468;-69
2022/01/12 01:40:12;;;;;;;17.00;6.10;;;;;;;-6.95;64.09;99976.66;25159;1311;3026646;-65
2022/01/12 01:53:48;;;;;;;17.40;7.80;;;;;;;-7.00;64.52;99987.96;25147;1310;3068591;-63
2022/01/12 01:56:19;;;;;;;12.80;6.60;;;;;;;-6.94;64.24;99983.14;25126;1312;3027165;-64
2022/01/12 01:58:48;;;;;;;15.90;6.80;;;;;;;-7.13;64.64;99986.04;25169;1310;3052321;-59
2022/01/12 02:01:19;;;;;;;16.40;7.60;;;;;;;-7.11;64.53;99983.50;25134;1311;3026093;-68
2022/01/12 02:03:55;;;;;;;16.10;6.50;;;;;;;-7.13;64.60;99990.12;25150;1310;3048342;-64
2022/01/12 02:06:25;;;;;;;18.30;8.00;;;;;;;-7.11;64.49;99991.52;25167;1312;3026792;-69
2022/01/12 02:08:55;;;;;;;11.90;5.30;;;;;;;-7.14;64.76;99992.66;25157;1310;3026225;-67
2022/01/12 02:11:52;;;;;;;13.80;6.40;;;;;;;-7.27;64.29;99993.23;25155;1310;3057772;-63
2022/01/12 02:14:23;;;;;;;13.60;6.40;;;;;;;-7.29;64.56;100002.23;25131;1310;3052370;-68
2022/01/12 02:16:57;;;;;;;26.30;8.00;;;;;;;-7.47;64.60;100006.97;25135;1310;3028573;-60
2022/01/12 02:36:23;;;;;;;13.30;5.50;;;;;;;-6.89;64.49;100015.10;25173;1312;3051110;-69
2022/01/12 02:41:41;;;;;;;14.80;5.60;;;;;;;-6.92;64.67;100011.65;25173;1310;3057010;-70
2022/01/12 02:55:11;;;;;;;18.30;7.90;;;;;;;-7.00;64.73;100022.22;25143;1312;3051404;-59
2022/01/12 02:57:40;;;;;;;17.30;7.00;;;;;;;-6.96;64.37;100018.87;25144;1310;3026502;-67
2022/01/12 03:00:14;;;;;;;17.30;7.10;;;;;;;-7.07;64.22;100017.81;25164;1312;3025939;-69
2022/01/12 03:02:48;;;;;;;16.50;7.20;;;;;;;-6.95;64.60;100023.33;25107;1311;3049337;-68
2022/01/12 03:05:46;;;;;;;18.40;8.80;;;;;;;-7.15;64.97;100019.55;25141;1311;3050281;-66
2022/01/12 03:08:19;;;;;;;21.60;9.00;;;;;;;-7.08;65.16;100017.30;25188;1309;3053475;-63
2022/01/12 03:10:48;;;;;;;15.40;7.50;;;;;;;-7.03;65.54;100025.04;25124;1311;3026343;-66
2022/01/12 03:13:17;;;;;;;22.40;9.60;;;;;;;-6.97;65.09;100021.23;25132;1313;3027611;-64
2022/01/12 03:15:48;;;;;;;23.00;8.30;;;;;;;-7.02;65.14;100019.79;25146;1314;3054692;-69
2022/01/12 03:18:18;;;;;;;22.00;9.70;;;;;;;-7.10;65.59;100018.79;25192;1310;3027994;-61
2022/01/12 03:20:47;;;;;;;18.30;8.00;;;;;;;-7.13;66.03;100024.17;25120;1311;3026518;-67
2022/01/12 03:23:16;;;;;;;25.50;10.50;;;;;;;-7.18;66.78;100020.85;25135;1311;3056130;-67
2022/01/12 03:25:45;;;;;;;20.70;8.10;;;;;;;-7.04;66.72;100023.14;25152;1311;3027208;-58
2022/01/12 03:28:14;;;;;;;21.60;9.00;;;;;;;-7.16;67.23;100028.70;25106;1312;3052299;-65
2022/01/12 03:30:53;;;;;;;23.60;10.20;;;;;;;-7.26;67.58;100034.13;25095;1312;3027120;-61
2022/01/12 03:39:03;;;;;;;17.20;7.90;;;;;;;-7.36;67.71;100032.55;25139;1312;3052001;-61
2022/01/12 03:41:35;;;;;;;17.60;8.50;;;;;;;-7.59;67.77;100035.30;25117;1311;3052713;-64
2022/01/12 03:44:07;;;;;;;17.30;8.60;;;;;;;-7.51;67.64;100040.76;25127;1312;3026917;-63
2022/01/12 03:46:44;;;;;;;19.80;8.80;;;;;;;-7.58;67.79;100036.70;25157;1310;3028463;-69
2022/01/12 03:49:15;;;;;;;18.50;8.20;;;;;;;-7.57;67.82;100031.61;25153;1312;3053774;-61
2022/01/12 03:51:45;;;;;;;20.30;9.30;;;;;;;-7.55;67.92;100027.74;25134;1310;3026544;-66
2022/01/12 03:54:14;;;;;;;21.80;10.50;;;;;;;-7.36;67.64;100027.29;25165;1312;3026424;-70
2022/01/12 03:56:43;;;;;;;23.90;9.70;;;;;;;-7.34;67.83;100027.48;25114;1311;3026300;-65
2022/01/12 03:59:12;;;;;;;26.00;11.70;;;;;;;-7.30;67.83;100028.60;25173;1310;3026438;-71
2022/01/12 04:01:41;;;;;;;19.90;10.10;;;;;;;-7.14;67.78;100025.52;25113;1310;3058528;-60
2022/01/12 04:04:18;;;;;;;23.40;11.00;;;;;;;-7.10;67.77;100024.58;25122;1310;3027519;-67
2022/01/12 04:09:35;;;;;;;20.90;9.60;;;;;;;-7.17;67.18;100020.52;25150;1312;3050039;-66
2022/01/12 04:12:04;;;;;;;20.10;10.40;;;;;;;-6.99;66.87;100016.44;25081;1311;3026861;-69
2022/01/12 04:14:34;;;;;;;24.20;10.60;;;;;;;-6.89;66.40;100013.56;25143;1310;3026054;-68
2022/01/12 04:17:03;;;;;;;24.60;10.40;;;;;;;-6.88;65.96;100011.04;25113;1312;3026541;-62
2022/01/12 04:19:34;;;;;;;24.30;11.70;;;;;;;-7.08;66.26;100017.46;25111;1311;3026526;-61
2022/01/12 04:23:16;;;;;;;26.20;11.80;;;;;;;-7.12;66.72;100019.41;25130;1311;3048582;-56
2022/01/12 04:24:56;;;;;;;21.60;10.80;;;;;;;-6.79;65.98;100022.45;25145;1312;3053429;-67
2022/01/12 04:27:25;;;;;;;18.80;9.40;;;;;;;-6.84;65.78;100020.13;25137;1312;3026741;-62
2022/01/12 04:29:54;;;;;;;19.20;8.40;;;;;;;-6.78;65.59;100021.09;25130;1312;3053209;-65
2022/01/12 04:32:25;;;;;;;25.40;10.10;;;;;;;-7.08;65.99;100022.05;25149;1312;3026681;-66
2022/01/12 04:34:54;;;;;;;21.90;8.80;;;;;;;-7.03;65.54;100019.77;25117;1310;3067800;-69
2022/01/12 04:37:23;;;;;;;32.70;10.70;;;;;;;-7.19;65.86;100029.84;25153;1310;3026788;-66
2022/01/12 04:39:51;;;;;;;20.50;9.10;;;;;;;-7.30;65.92;100029.45;25124;1310;3054858;-63
2022/01/12 04:42:20;;;;;;;19.40;8.20;;;;;;;-7.16;65.41;100017.64;25015;1310;3047756;-66
2022/01/12 04:44:59;;;;;;;17.30;8.40;;;;;;;-7.33;65.46;100016.80;25147;1310;3055521;-64
2022/01/12 04:47:45;;;;;;;16.80;9.00;;;;;;;-7.43;66.06;100029.34;25139;1312;3054042;-63
2022/01/12 04:50:15;;;;;;;15.50;8.70;;;;;;;-7.46;66.59;100032.35;25120;1315;3069595;-64
2022/01/12 04:52:44;;;;;;;25.30;9.60;;;;;;;-7.46;66.02;100025.70;25173;1310;3026110;-67
2022/01/12 04:55:13;;;;;;;18.30;7.80;;;;;;;-7.42;66.40;100024.61;25124;1311;3050514;-60
2022/01/12 04:57:42;;;;;;;21.00;8.90;;;;;;;-7.50;65.86;100030.05;25144;1309;3026290;-63
2022/01/12 05:00:16;;;;;;;26.10;10.20;;;;;;;-7.38;65.63;100026.73;25116;1312;3053711;-68
2022/01/12 05:14:05;;;;;;;14.10;7.30;;;;;;;-7.55;66.49;100045.59;25139;1310;3052095;-64
2022/01/12 05:16:34;;;;;;;14.50;7.60;;;;;;;-7.51;66.61;100040.06;25103;1310;3027930;-64
2022/01/12 05:19:05;;;;;;;18.20;8.90;;;;;;;-7.56;66.43;100038.78;25102;1311;3051920;-67
2022/01/12 05:21:35;;;;;;;19.00;9.40;;;;;;;-7.57;66.43;100043.17;25157;1312;3026564;-63
2022/01/12 05:24:06;;;;;;;16.10;7.40;;;;;;;-7.56;66.07;100037.77;25127;1310;3030174;-63
2022/01/12 05:26:38;;;;;;;20.20;9.10;;;;;;;-7.37;65.71;100038.83;25093;1312;3051339;-65
2022/01/12 05:29:07;;;;;;;16.80;8.20;;;;;;;-7.48;65.43;100037.59;25118;1310;3028573;-61
2022/01/12 05:31:36;;;;;;;19.00;8.30;;;;;;;-7.63;65.56;100037.77;25127;1311;3055896;-63
2022/01/12 05:34:05;;;;;;;15.00;8.00;;;;;;;-7.72;65.52;100030.09;25140;1311;3026545;-66
2022/01/12 05:36:35;;;;;;;14.90;7.80;;;;;;;-7.89;66.28;100042.30;25147;1310;3025618;-64
2022/01/12 05:39:05;;;;;;;20.00;7.80;;;;;;;-7.95;66.23;100068.84;25136;1312;3027421;-62
2022/01/12 05:41:35;;;;;;;17.80;8.80;;;;;;;-7.96;66.59;100031.59;25143;1310;3028628;-68
2022/01/12 05:44:07;;;;;;;16.90;6.80;;;;;;;-7.84;66.22;100047.50;25188;1311;3026526;-67
2022/01/12 05:46:39;;;;;;;17.10;7.50;;;;;;;-7.90;66.40;100054.16;25193;1312;3050181;-68
2022/01/12 05:49:36;;;;;;;11.60;5.60;;;;;;;-7.89;66.01;100050.27;25137;1310;3070199;-68
2022/01/12 05:52:06;;;;;;;13.80;6.80;;;;;;;-7.97;66.09;100057.23;25188;1310;3047309;-63
2022/01/12 05:54:35;;;;;;;20.20;8.60;;;;;;;-8.07;66.99;100052.91;25165;1309;3026598;-65
2022/01/12 05:57:04;;;;;;;23.50;9.20;;;;;;;-7.83;66.60;100050.08;25141;1312;3027944;-63
2022/01/12 05:59:33;;;;;;;18.60;9.40;;;;;;;-7.78;66.16;100058.87;25192;1311;3049130;-65
2022/01/12 06:04:11;;;;;;;27.20;10.30;;;;;;;-7.76;65.99;100051.93;31323;1319;3026579;-68
2022/01/12 06:06:40;;;;;;;32.10;14.50;;;;;;;-7.51;65.51;100056.05;25007;1318;3026221;-64
2022/01/12 06:09:10;;;;;;;27.20;11.00;;;;;;;-7.07;64.38;100053.92;25083;1317;3026657;-64
2022/01/12 06:11:40;;;;;;;25.10;11.40;;;;;;;-7.36;64.73;100064.89;25029;1317;3051129;-64
2022/01/12 06:14:10;;;;;;;22.20;10.50;;;;;;;-7.35;65.34;100056.91;25023;1319;3026061;-63
2022/01/12 06:16:40;;;;;;;35.30;10.80;;;;;;;-7.44;65.42;100048.39;24928;1316;3204347;-63
2022/01/12 06:19:09;;;;;;;27.60;12.80;;;;;;;-7.34;64.87;100057.80;25011;1318;3028523;-66
2022/01/12 06:21:47;;;;;;;29.30;12.70;;;;;;;-7.39;64.23;100065.19;25115;1315;3051130;-66
2022/01/12 06:24:21;;;;;;;27.10;12.40;;;;;;;-7.53;63.78;100062.16;25064;1315;3067322;-67
2022/01/12 06:26:50;;;;;;;29.80;11.10;;;;;;;-7.57;64.19;100063.92;25057;1315;3027003;-64
2022/01/12 06:31:52;;;;;;;15.40;8.00;;;;;;;-7.43;61.25;100067.48;25034;1316;3070511;-65
2022/01/12 06:34:23;;;;;;;20.90;7.20;;;;;;;-7.41;60.73;100067.02;25080;1315;3048463;-62
2022/01/12 06:36:52;;;;;;;18.10;8.00;;;;;;;-7.56;60.86;100073.83;25078;1315;3026568;-60
2022/01/12 06:39:23;;;;;;;22.20;8.00;;;;;;;-7.45;61.22;100081.23;25092;1315;3029478;-68
2022/01/12 06:41:54;;;;;;;16.60;7.50;;;;;;;-7.39;60.92;100084.07;25050;1315;3047397;-69
2022/01/12 06:44:23;;;;;;;16.30;7.80;;;;;;;-7.39;60.18;100083.05;25065;1315;3027756;-61
2022/01/12 06:46:53;;;;;;;24.10;9.10;;;;;;;-7.36;60.34;100081.92;25096;1315;3028751;-67
2022/01/12 06:49:21;;;;;;;26.90;8.40;;;;;;;-7.21;59.54;100082.08;25106;1315;3049080;-63
2022/01/12 06:51:53;;;;;;;21.30;8.30;;;;;;;-7.05;59.49;100086.66;25097;1315;3026289;-63
2022/01/12 06:54:22;;;;;;;23.50;8.60;;;;;;;-7.14;59.46;100088.67;25091;1314;3026639;-64
2022/01/12 06:56:51;;;;;;;24.40;8.60;;;;;;;-6.89;59.23;100088.17;25081;1315;3026318;-60
2022/01/12 06:59:19;;;;;;;21.80;8.80;;;;;;;-6.80;58.94;100089.38;25089;1316;3053543;-64
2022/01/12 07:01:49;;;;;;;19.80;7.20;;;;;;;-6.69;58.60;100094.52;25060;1315;3027675;-66
2022/01/12 07:04:20;;;;;;;22.30;8.70;;;;;;;-6.62;58.59;100093.65;25089;1315;3047840;-61
2022/01/12 07:06:49;;;;;;;18.60;8.30;;;;;;;-6.80;58.49;100092.45;25113;1315;3028988;-64
2022/01/12 07:09:18;;;;;;;21.30;8.30;;;;;;;-7.14;58.75;100093.81;25052;1315;3026779;-65
2022/01/12 07:11:57;;;;;;;20.00;7.60;;;;;;;-7.27;59.50;100094.02;25079;1315;3050570;-71
2022/01/12 07:14:30;;;;;;;22.90;8.60;;;;;;;-7.20;59.44;100094.52;25137;1315;3026841;-65
2022/01/12 07:17:00;;;;;;;15.70;6.20;;;;;;;-7.12;59.20;100086.34;25078;1315;3026593;-63
2022/01/12 07:19:29;;;;;;;15.70;7.50;;;;;;;-7.34;59.31;100087.58;25066;1315;3026472;-69
2022/01/12 07:21:58;;;;;;;16.20;7.00;;;;;;;-7.43;59.33;100078.20;25073;1315;3026560;-67
2022/01/12 07:24:27;;;;;;;20.60;7.30;;;;;;;-7.20;58.87;100078.70;25123;1316;3054060;-66
2022/01/12 07:26:56;;;;;;;25.00;7.90;;;;;;;-7.04;58.39;100080.40;25078;1315;3026628;-63
2022/01/12 07:29:26;;;;;;;17.30;6.30;;;;;;;-6.89;58.46;100075.73;25062;1315;3026376;-67
2022/01/12 07:31:54;;;;;;;15.90;7.00;;;;;;;-6.89;57.55;100074.89;25090;1316;3054117;-64
2022/01/12 07:34:23;;;;;;;27.30;8.40;;;;;;;-6.63;57.50;100076.40;25087;1315;3028491;-65
2022/01/12 07:36:52;;;;;;;22.80;7.90;;;;;;;-6.51;56.68;100078.50;25105;1315;3054649;-63
2022/01/12 07:39:21;;;;;;;18.40;8.20;;;;;;;-6.46;57.01;100081.33;25120;1315;3026803;-66
2022/01/12 07:41:58;;;;;;;21.20;8.30;;;;;;;-6.55;56.50;100085.23;25087;1315;3051652;-68
2022/01/12 07:44:30;;;;;;;17.80;7.30;;;;;;;-6.50;56.36;100085.86;25101;1315;3027275;-68
2022/01/12 07:46:59;;;;;;;17.10;7.00;;;;;;;-6.33;55.98;100081.56;25090;1315;3026791;-64
2022/01/12 07:49:28;;;;;;;22.60;8.60;;;;;;;-6.54;56.02;100080.84;25113;1316;3048056;-63
2022/01/12 07:51:57;;;;;;;17.90;7.20;;;;;;;-6.46;56.67;100089.84;25055;1316;3026952;-68
2022/01/12 07:54:29;;;;;;;19.80;8.10;;;;;;;-6.47;56.16;100097.33;25051;1318;3070525;-63
2022/01/12 07:56:58;;;;;;;20.10;8.60;;;;;;;-6.43;56.28;100097.40;25109;1317;3026325;-63
2022/01/12 07:59:26;;;;;;;21.30;9.20;;;;;;;-6.59;56.95;100105.27;25108;1315;3050485;-66
2022/01/12 08:01:55;;;;;;;20.60;6.90;;;;;;;-6.73;56.97;100098.72;25098;1315;3026306;-63
2022/01/12 08:04:24;;;;;;;22.30;8.80;;;;;;;-6.67;56.98;100099.17;25100;1315;3055118;-63
2022/01/12 08:06:55;;;;;;;26.30;9.30;;;;;;;-6.64;57.14;100105.88;25108;1316;3027184;-65
2022/01/12 08:22:24;;;;;;;20.70;9.30;;;;;;;-6.66;56.84;100098.85;9158;1323;3097225;-66
2022/01/12 08:24:54;;;;;;;20.20;8.40;;;;;;;-6.38;56.71;100097.84;25149;1316;3048894;-65
2022/01/12 08:27:23;;;;;;;19.60;7.80;;;;;;;-6.20;56.01;100096.44;25336;1315;3026898;-62
2022/01/12 08:29:59;;;;;;;23.80;8.50;;;;;;;-6.08;56.06;100090.68;25892;1316;3025961;-66
2022/01/12 08:32:28;;;;;;;20.00;8.80;;;;;;;-5.84;55.69;100083.20;25134;1315;3048241;-62
2022/01/12 08:34:57;;;;;;;19.20;8.00;;;;;;;-5.64;55.29;100090.50;25109;1316;3026683;-68
2022/01/12 08:37:26;;;;;;;21.10;7.10;;;;;;;-5.88;55.54;100082.79;25060;1315;3028434;-64
2022/01/12 08:39:55;;;;;;;13.20;7.20;;;;;;;-6.09;55.36;100089.27;25117;1316;3048868;-69
2022/01/12 08:42:24;;;;;;;15.40;7.10;;;;;;;-6.55;56.37;100093.60;25155;1314;3026684;-62
2022/01/12 08:44:53;;;;;;;17.20;7.10;;;;;;;-6.90;57.37;100096.85;25143;1316;3067837;-63
2022/01/12 08:47:22;;;;;;;17.30;7.90;;;;;;;-6.99;58.24;100087.63;25124;1316;3026593;-64
2022/01/12 08:49:51;;;;;;;17.60;7.60;;;;;;;-6.88;57.99;100083.09;25135;1315;3049788;-65
2022/01/12 08:52:22;;;;;;;29.00;8.60;;;;;;;-6.60;57.74;100085.83;25176;1316;3026638;-60
2022/01/12 08:54:52;;;;;;;16.20;7.20;;;;;;;-6.39;56.73;100082.98;25173;1316;3052528;-65
2022/01/12 08:57:20;;;;;;;20.50;8.60;;;;;;;-6.32;56.99;100080.20;25118;1315;3026898;-64
2022/01/12 09:00:52;;;;;;;;;;;;;;;;;;;;;
2022/01/12 09:09:02;;;;;;;15.30;7.30;;;;;;;-6.34;57.28;100073.36;9623;1321;3072178;-65
2022/01/12 09:12:48;;;;;;;18.60;8.40;;;;;;;-6.50;57.49;100079.88;9026;1324;3077448;-65
2022/01/12 09:21:33;;;;;;;16.50;7.80;;;;;;;-6.04;56.24;100071.98;10313;1313;3163491;-63
2022/01/12 09:24:02;;;;;;;21.20;8.50;;;;;;;-6.39;56.37;100070.54;25620;1313;3026783;-61
2022/01/12 09:26:31;;;;;;;20.10;8.90;;;;;;;-6.35;57.49;100063.63;25676;1313;3026271;-67
2022/01/12 09:29:05;;;;;;;24.00;9.60;;;;;;;-6.38;56.91;100058.79;25111;1316;3067157;-66
2022/01/12 09:31:35;;;;;;;18.70;7.30;;;;;;;-6.60;56.79;100063.34;25108;1313;3029044;-61
2022/01/12 09:34:04;;;;;;;20.10;8.30;;;;;;;-6.73;57.24;100059.53;25086;1316;3051240;-65
2022/01/12 09:36:33;;;;;;;16.90;8.40;;;;;;;-6.53;56.85;100055.11;25079;1316;3026362;-66
2022/01/12 09:39:02;;;;;;;16.70;7.10;;;;;;;-6.45;57.06;100054.92;25110;1316;3026852;-62
2022/01/12 09:41:31;;;;;;;22.60;8.90;;;;;;;-6.50;57.86;100056.70;25094;1314;3052187;-67
2022/01/12 09:44:00;;;;;;;19.90;7.70;;;;;;;-6.56;58.80;100063.24;25107;1313;3028073;-66
2022/01/12 09:46:29;;;;;;;13.00;5.60;;;;;;;-6.55;58.66;100061.55;25111;1313;3056614;-65
2022/01/12 09:48:59;;;;;;;22.30;6.80;;;;;;;-6.43;57.98;100053.77;25123;1313;3026473;-67
2022/01/12 09:51:29;;;;;;;15.50;5.70;;;;;;;-6.79;60.73;100065.70;25115;1316;3050068;-65
2022/01/12 09:53:58;;;;;;;14.80;7.10;;;;;;;-7.03;62.72;100063.02;25122;1316;3026735;-67
2022/01/12 09:56:28;;;;;;;17.80;7.00;;;;;;;-7.12;63.52;100073.07;25087;1313;3055969;-65
2022/01/12 09:59:00;;;;;;;13.80;5.90;;;;;;;-7.37;64.70;100072.70;25087;1313;3048415;-66
2022/01/12 10:01:34;;;;;;;13.50;6.90;;;;;;;-7.54;65.04;100069.80;25154;1312;3026328;-67
2022/01/12 10:04:27;;;;;;;19.10;7.80;;;;;;;-7.55;65.55;100070.63;25137;1313;3050284;-65
2022/01/12 10:07:03;;;;;;;21.00;7.70;;;;;;;-7.57;66.09;100065.30;25113;1312;3069446;-68
2022/01/12 10:09:46;;;;;;;14.20;7.30;;;;;;;-7.59;66.28;100062.70;25100;1313;3048016;-65
2022/01/12 10:12:17;;;;;;;18.40;8.60;;;;;;;-7.75;67.12;100058.77;25102;1313;3053524;-64
2022/01/12 10:14:52;;;;;;;20.40;8.20;;;;;;;-7.67;66.90;100050.44;25147;1312;3026907;-64
2022/01/12 10:17:36;;;;;;;22.10;8.50;;;;;;;-7.60;66.69;100050.77;25133;1313;3058545;-64
2022/01/12 10:20:09;;;;;;;19.70;8.60;;;;;;;-7.58;67.20;100058.48;25108;1312;3048734;-64
2022/01/12 10:22:39;;;;;;;17.40;8.70;;;;;;;-7.33;67.09;100055.95;25125;1312;3026750;-66
2022/01/12 10:25:19;;;;;;;19.20;7.80;;;;;;;-7.24;65.71;100049.31;25114;1313;3026607;-65
2022/01/12 10:27:49;;;;;;;15.50;8.00;;;;;;;-7.38;66.43;100046.65;25107;1313;3069574;-64
2022/01/12 10:30:23;;;;;;;18.50;7.50;;;;;;;-7.54;66.28;100049.71;25109;1312;3026821;-64
2022/01/12 10:33:10;;;;;;;24.40;9.70;;;;;;;-7.62;65.89;100050.38;25115;1313;3051842;-62
2022/01/12 10:35:40;;;;;;;19.80;7.60;;;;;;;-7.44;66.35;100045.16;25108;1313;3050607;-66
2022/01/12 10:38:11;;;;;;;15.20;8.30;;;;;;;-7.58;65.55;100048.27;25103;1313;3026556;-67
2022/01/12 10:40:54;;;;;;;22.70;10.10;;;;;;;-7.35;65.40;100043.64;25095;1313;3026205;-62
2022/01/12 10:43:29;;;;;;;21.10;9.10;;;;;;;-7.36;65.42;100042.77;25155;1312;3051999;-62
2022/01/12 10:45:59;;;;;;;24.30;10.20;;;;;;;-7.47;66.13;100044.92;25168;1313;3049655;-65
2022/01/12 10:48:45;;;;;;;21.60;9.80;;;;;;;-7.45;65.52;100033.22;25099;1313;3027635;-65
2022/01/12 10:51:22;;;;;;;25.40;9.70;;;;;;;-7.14;64.79;100036.59;25076;1315;3050691;-68
2022/01/12 10:53:59;;;;;;;24.60;10.20;;;;;;;-6.92;64.02;100034.30;25131;1316;3051661;-63
2022/01/12 10:56:29;;;;;;;19.00;6.30;;;;;;;-6.73;62.21;100037.55;25129;1316;3054065;-63
2022/01/12 10:58:58;;;;;;;18.00;9.10;;;;;;;-7.12;61.20;100040.02;25085;1313;3026243;-61
2022/01/12 11:01:28;;;;;;;24.40;9.60;;;;;;;-7.20;62.37;100041.23;25099;1313;3026960;-66
2022/01/12 11:03:57;;;;;;;19.70;10.50;;;;;;;-7.07;62.24;100042.01;25110;1316;3054579;-68
2022/01/12 11:06:27;;;;;;;18.00;8.00;;;;;;;-7.14;61.70;100039.31;25104;1313;3027070;-64
2022/01/12 11:08:56;;;;;;;14.80;6.20;;;;;;;-7.32;61.66;100035.54;25097;1316;3026365;-65
2022/01/12 11:11:26;;;;;;;22.30;9.80;;;;;;;-7.46;61.92;100034.91;25105;1313;3054603;-68
2022/01/12 11:13:55;;;;;;;11.30;5.70;;;;;;;-7.56;62.88;100028.04;25077;1312;3026483;-64
2022/01/12 11:16:29;;;;;;;17.90;7.20;;;;;;;-7.79;63.79;100040.81;25117;1315;3027302;-69
2022/01/12 11:18:58;;;;;;;24.50;11.10;;;;;;;-7.84;65.57;100034.23;25124;1316;3027500;-68
2022/01/12 11:21:41;;;;;;;17.80;8.30;;;;;;;-7.77;65.41;100032.38;25078;1315;3027969;-64
2022/01/12 11:24:14;;;;;;;21.50;8.30;;;;;;;-7.88;64.50;100036.70;25104;1315;3050770;-67
2022/01/12 11:26:52;;;;;;;19.60;8.40;;;;;;;-7.82;63.55;100039.05;25116;1313;3027238;-65
2022/01/12 11:29:27;;;;;;;15.60;7.60;;;;;;;-7.70;62.74;100041.70;25165;1313;3049467;-65
2022/01/12 12:07:30;;;;;;;18.40;8.80;;;;;;;-7.68;64.91;100057.91;6878;1316;3077369;-65
2022/01/12 12:10:14;;;;;;;17.00;8.30;;;;;;;-7.66;64.95;100060.16;6239;1319;3111442;-68
2022/01/12 12:13:22;;;;;;;21.10;9.10;;;;;;;-7.89;65.36;100054.70;5035;1319;3135740;-69
2022/01/12 12:16:45;;;;;;;13.10;6.70;;;;;;;-7.92;64.51;100053.95;6878;1316;3116150;-67
2022/01/12 12:19:21;;;;;;;22.10;9.00;;;;;;;-7.96;64.47;100054.71;9590;1316;3105059;-66
2022/01/12 12:22:25;;;;;;;21.90;9.70;;;;;;;-8.09;64.16;100057.98;6398;1321;3081667;-65
2022/01/12 12:25:50;;;;;;;20.30;10.50;;;;;;;-8.13;65.17;100059.41;5563;1323;3107089;-66
2022/01/12 12:32:43;;;;;;;23.40;10.00;;;;;;;-8.18;66.39;100065.23;4814;1321;3122430;-65
2022/01/12 12:38:45;;;;;;;21.90;8.90;;;;;;;-8.01;66.06;100075.02;4176;1323;3173798;-64
2022/01/12 12:41:57;;;;;;;19.70;8.60;;;;;;;-8.05;65.85;100068.44;5564;1321;3150546;-66
2022/01/12 12:44:55;;;;;;;19.70;8.60;;;;;;;-8.14;65.57;100070.93;4417;1322;3105853;-66
2022/01/12 12:48:06;;;;;;;27.10;13.40;;;;;;;-8.12;64.99;100061.80;6719;1318;3163033;-68
2022/01/12 12:50:49;;;;;;;19.20;8.70;;;;;;;-7.97;63.41;100061.99;5971;1322;3144875;-64
2022/01/12 12:54:12;;;;;;;17.40;7.90;;;;;;;-8.22;63.63;100073.97;5603;1323;3163384;-65
2022/01/12 12:56:52;;;;;;;19.70;8.40;;;;;;;-8.50;63.74;100071.27;5360;1323;3105383;-66
2022/01/12 13:00:34;;;;;;;15.50;6.30;;;;;;;-8.35;63.70;100064.13;4503;1323;3148933;-68
2022/01/12 13:04:27;;;;;;;18.00;8.10;;;;;;;-8.35;63.57;100053.59;3697;1323;3122371;-66
2022/01/12 13:08:16;;;;;;;15.30;7.30;;;;;;;-8.21;62.69;100061.94;3553;1320;3139463;-64
2022/01/12 13:12:23;;;;;;;24.20;8.90;;;;;;;-8.35;62.90;100055.95;4882;1318;3112851;-66
2022/01/12 13:15:38;;;;;;;17.90;8.20;;;;;;;-8.35;63.15;100058.19;4116;1324;3145754;-66
2022/01/12 13:18:22;;;;;;;17.20;8.30;;;;;;;-8.18;63.27;100052.32;25050;1318;3051208;-62
2022/01/12 13:21:11;;;;;;;22.20;9.80;;;;;;;-8.07;62.80;100056.14;10325;1316;3063334;-65
2022/01/12 13:24:14;;;;;;;20.40;7.30;;;;;;;-8.10;62.27;100064.74;4583;1323;3080874;-66
2022/01/12 13:27:23;;;;;;;21.70;8.40;;;;;;;-8.24;62.69;100063.06;4755;1322;3133017;-66
2022/01/12 13:30:02;;;;;;;21.60;9.30;;;;;;;-8.04;62.56;100066.09;4165;1323;3088489;-65
2022/01/12 13:45:37;;;;;;;13.30;5.00;;;;;;;-8.47;63.11;100077.29;4963;1316;3110619;-63
2022/01/12 13:48:37;;;;;;;12.40;4.80;;;;;;;-8.59;62.50;100082.06;5598;1323;3131948;-64
2022/01/12 13:54:44;;;;;;;26.70;11.70;;;;;;;-8.43;62.41;100073.11;3398;1322;3129170;-65
2022/01/12 13:57:15;;;;;;;19.40;7.90;;;;;;;-8.42;62.36;100065.49;9620;1316;3124766;-64
2022/01/12 13:59:51;;;;;;;16.40;7.30;;;;;;;-8.48;62.73;100068.75;25121;1315;3071146;-65
2022/01/12 14:02:23;;;;;;;23.40;8.30;;;;;;;-8.25;63.13;100073.05;25118;1316;3049127;-64
2022/01/12 14:05:05;;;;;;;15.50;6.20;;;;;;;-8.30;62.87;100082.96;25102;1315;3026530;-63
2022/01/12 14:07:39;;;;;;;16.70;8.10;;;;;;;-8.42;63.93;100083.33;25088;1316;3053412;-65
2022/01/12 14:10:10;;;;;;;17.20;6.80;;;;;;;-8.57;65.58;100091.11;25119;1316;3026470;-66
2022/01/12 14:12:48;;;;;;;15.30;7.20;;;;;;;-8.60;66.71;100082.73;25092;1315;3026382;-61
2022/01/12 14:15:27;;;;;;;18.70;9.50;;;;;;;-8.44;67.20;100080.05;25117;1316;3054593;-67
2022/01/12 14:17:59;;;;;;;22.70;9.10;;;;;;;-8.22;66.33;100082.64;25146;1316;3051292;-65
2022/01/12 14:20:31;;;;;;;20.60;9.60;;;;;;;-8.16;66.39;100080.42;25079;1316;3029979;-67
2022/01/12 14:23:01;;;;;;;14.60;7.10;;;;;;;-8.28;66.24;100079.61;25125;1316;3026186;-64
2022/01/12 14:25:43;;;;;;;15.30;7.40;;;;;;;-8.33;65.37;100081.88;25109;1316;3027002;-62